createdAt,value
2019-02-21T00:04:37.926Z,2.00
2019-02-21T00:09:42.202Z,2.50
2019-02-21T00:14:46.410Z,2.00
2019-02-21T00:19:50.534Z,1.00
2019-02-21T00:24:54.625Z,2.50
2019-02-21T00:29:58.815Z,2.50
2019-02-21T00:35:03.301Z,2.50
2019-02-21T00:40:07.634Z,2.20
2019-02-21T00:45:11.878Z,3.00
2019-02-21T00:50:17.053Z,3.40
2019-02-21T00:55:21.197Z,3.00
2019-02-21T01:00:25.304Z,1.00
2019-02-21T01:05:29.347Z,2.00
2019-02-21T01:10:33.537Z,2.00
2019-02-21T01:15:37.587Z,2.25
2019-02-21T01:20:41.603Z,2.00
2019-02-21T01:25:45.622Z,2.60
2019-02-21T01:30:56.646Z,2.00
2019-02-21T01:35:55.777Z,2.33
2019-02-21T01:40:59.941Z,1.25
2019-02-21T01:46:04.132Z,1.60
2019-02-21T01:51:08.287Z,1.20
2019-02-21T01:56:12.417Z,2.25
2019-02-21T02:01:16.532Z,2.00
2019-02-21T02:06:20.708Z,1.40
2019-02-21T02:11:24.851Z,3.25
2019-02-21T02:16:28.973Z,2.25
2019-02-21T02:21:33.111Z,3.00
2019-02-21T02:26:37.241Z,1.25
2019-02-21T02:31:41.926Z,2.00
2019-02-21T02:36:46.155Z,1.20
2019-02-21T02:41:50.260Z,1.20
2019-02-21T02:46:54.410Z,2.00
2019-02-21T02:51:58.475Z,2.00
2019-02-21T02:57:02.618Z,2.00
2019-02-21T03:02:06.747Z,2.00
2019-02-21T03:07:10.772Z,2.00
2019-02-21T03:12:14.892Z,2.40
2019-02-21T03:17:18.929Z,1.75
2019-02-21T03:22:22.977Z,2.33
2019-02-21T03:27:27.067Z,1.00
2019-02-21T03:32:31.201Z,2.00
2019-02-21T03:37:35.244Z,1.60
2019-02-21T03:42:39.383Z,1.00
2019-02-21T03:47:43.417Z,1.40
2019-02-21T03:52:47.467Z,2.00
2019-02-21T03:57:51.683Z,1.40
2019-02-21T04:02:55.786Z,2.00
2019-02-21T04:07:59.928Z,2.00
2019-02-21T04:13:04.147Z,2.00
2019-02-21T04:18:08.306Z,1.40
2019-02-21T04:23:12.451Z,1.80
2019-02-21T04:28:16.501Z,1.00
2019-02-21T04:33:20.593Z,2.20
2019-02-21T04:38:24.750Z,2.00
2019-02-21T04:43:28.920Z,1.20
2019-02-21T04:48:33.005Z,2.00
2019-02-21T04:53:37.135Z,3.50
2019-02-21T04:58:41.352Z,1.00
2019-02-21T05:03:45.511Z,2.40
2019-02-21T05:08:49.581Z,2.20
2019-02-21T05:13:53.725Z,2.00
2019-02-21T05:18:57.806Z,1.00
2019-02-21T05:24:01.952Z,1.20
2019-02-21T05:29:08.065Z,1.75
2019-02-21T05:34:28.889Z,2.00
2019-02-21T05:39:44.751Z,1.40
2019-02-21T05:45:11.427Z,2.00
2019-02-21T05:50:31.165Z,2.75
2019-02-21T05:55:47.645Z,2.00
2019-02-21T06:00:58.738Z,0.75
2019-02-21T06:06:24.868Z,3.00
2019-02-21T06:11:35.425Z,2.20
2019-02-21T06:16:57.438Z,1.00
2019-02-21T06:22:21.793Z,1.25
2019-02-21T06:27:37.906Z,2.00
2019-02-21T06:32:41.021Z,2.25
2019-02-21T06:37:45.100Z,3.00
2019-02-21T06:42:49.128Z,1.75
2019-02-21T06:47:53.207Z,3.00
2019-02-21T06:52:57.232Z,3.00
2019-02-21T06:58:01.277Z,2.00
2019-02-21T07:03:15.095Z,2.00
2019-02-21T07:08:11.062Z,2.50
2019-02-21T07:13:26.119Z,1.50
2019-02-21T07:18:20.911Z,1.50
2019-02-21T07:23:25.339Z,3.00
2019-02-21T07:28:29.364Z,1.40
2019-02-21T07:33:33.401Z,3.00
2019-02-21T07:38:37.700Z,1.00
2019-02-21T07:43:41.724Z,1.00
2019-02-21T07:48:45.756Z,1.00
2019-02-21T07:53:49.779Z,2.00
2019-02-21T07:58:53.946Z,30.00
2019-02-21T08:03:58.013Z,28.75
2019-02-21T08:09:02.058Z,29.50
2019-02-21T08:14:06.105Z,24.20
2019-02-21T08:19:10.132Z,23.00
2019-02-21T08:24:14.179Z,19.25
2019-02-21T08:29:20.673Z,17.80
2019-02-21T08:34:28.372Z,14.75
2019-02-21T08:39:32.427Z,13.40
2019-02-21T08:44:36.452Z,14.60
2019-02-21T08:49:40.535Z,13.20
2019-02-21T08:54:44.561Z,11.25
2019-02-21T08:59:48.604Z,10.20
2019-02-21T09:04:52.700Z,9.75
2019-02-21T09:09:56.794Z,9.60
2019-02-21T09:15:00.837Z,8.25
2019-02-21T09:20:05.228Z,8.00
2019-02-21T09:25:11.214Z,9.60
2019-02-21T09:30:16.974Z,8.80
2019-02-21T09:35:20.985Z,8.60
2019-02-21T09:40:25.031Z,7.50
2019-02-21T09:45:29.156Z,5.25
2019-02-21T09:50:33.232Z,6.00
2019-02-21T09:55:37.287Z,8.00
2019-02-21T10:00:41.387Z,8.60
2019-02-21T10:05:45.409Z,8.00
2019-02-21T10:10:49.520Z,7.75
2019-02-21T10:15:53.660Z,5.25
2019-02-21T10:20:57.748Z,5.00
2019-02-21T10:26:01.851Z,7.00
2019-02-21T10:31:05.949Z,5.50
2019-02-21T10:36:09.990Z,6.20
2019-02-21T10:41:14.097Z,5.80
2019-02-21T10:46:18.127Z,9.40
2019-02-21T10:51:22.257Z,9.80
2019-02-21T10:56:26.282Z,10.00
2019-02-21T11:01:30.421Z,11.20
2019-02-21T11:06:34.524Z,11.00
2019-02-21T11:11:38.633Z,8.00
2019-02-21T11:16:42.793Z,9.00
2019-02-21T11:21:46.813Z,7.75
2019-02-21T11:26:50.922Z,7.75
2019-02-21T11:31:55.031Z,8.60
2019-02-21T11:36:59.122Z,8.60
2019-02-21T11:42:03.150Z,8.00
2019-02-21T11:47:07.320Z,8.25
2019-02-21T11:52:11.435Z,8.60
2019-02-21T11:57:15.488Z,8.40
2019-02-21T12:02:19.509Z,6.50
2019-02-21T12:07:23.560Z,7.50
2019-02-21T12:12:27.672Z,8.00
2019-02-21T12:17:31.773Z,9.40
2019-02-21T12:22:35.784Z,6.25
2019-02-21T12:27:39.911Z,9.00
2019-02-21T12:32:44.013Z,8.75
2019-02-21T12:37:48.184Z,9.50
2019-02-21T12:42:52.304Z,6.80
2019-02-21T12:47:56.411Z,7.00
2019-02-21T12:53:00.441Z,8.50
2019-02-21T12:58:04.542Z,5.80
2019-02-21T13:03:08.580Z,8.75
2019-02-21T13:08:12.619Z,5.00
2019-02-21T13:13:16.651Z,6.20
2019-02-21T13:18:20.690Z,6.25
2019-02-21T13:23:24.714Z,6.25
2019-02-21T13:28:28.739Z,7.50
2019-02-21T13:33:32.796Z,6.00
2019-02-21T13:38:36.883Z,5.75
2019-02-21T13:43:40.952Z,5.40
2019-02-21T13:48:45.011Z,5.00
2019-02-21T13:53:49.115Z,6.40
2019-02-21T13:58:53.235Z,4.40
2019-02-21T14:03:57.400Z,5.60
2019-02-21T14:09:01.436Z,6.20
2019-02-21T14:14:05.634Z,6.20
2019-02-21T14:19:09.694Z,4.00
2019-02-21T14:24:13.739Z,5.00
2019-02-21T14:29:17.788Z,5.25
2019-02-21T14:34:21.921Z,5.40
2019-02-21T14:39:25.961Z,5.00
2019-02-21T14:44:30.028Z,5.75
2019-02-21T14:49:34.064Z,4.25
2019-02-21T14:54:38.253Z,5.75
2019-02-21T14:59:44.637Z,6.00
2019-02-21T15:04:48.070Z,5.00
2019-02-21T15:09:52.143Z,5.40
2019-02-21T15:14:56.214Z,4.20
2019-02-21T15:20:00.479Z,3.50
2019-02-21T15:25:04.831Z,6.20
2019-02-21T15:30:11.489Z,4.60
2019-02-21T15:35:15.737Z,5.00
2019-02-21T15:40:19.810Z,4.40
2019-02-21T15:45:24.450Z,5.80
2019-02-21T15:50:28.632Z,5.40
2019-02-21T15:55:32.685Z,5.00
2019-02-21T16:00:36.779Z,4.00
2019-02-21T16:05:40.803Z,5.50
2019-02-21T16:10:44.893Z,4.50
2019-02-21T16:15:48.996Z,4.50
2019-02-21T16:20:53.204Z,3.80
2019-02-21T16:25:57.237Z,4.80
2019-02-21T16:31:01.351Z,4.00
2019-02-21T16:36:05.478Z,5.00
2019-02-21T16:41:09.527Z,4.75
2019-02-21T16:46:13.548Z,6.00
2019-02-21T16:51:17.568Z,3.00
2019-02-21T16:56:21.611Z,9.00
2019-02-21T17:01:25.675Z,8.80
2019-02-21T17:06:29.809Z,17.75
2019-02-21T17:11:33.856Z,12.75
2019-02-21T17:16:37.919Z,21.00
2019-02-21T17:21:41.952Z,18.75
2019-02-21T17:26:46.085Z,17.25
2019-02-21T17:31:50.242Z,17.25
2019-02-21T17:36:54.289Z,15.50
2019-02-21T17:41:58.313Z,13.25
2019-02-21T17:47:02.394Z,14.60
2019-02-21T17:52:06.425Z,13.00
2019-02-21T17:57:10.545Z,14.80
2019-02-21T18:02:14.774Z,14.00
2019-02-21T18:07:18.838Z,14.00
2019-02-21T18:12:22.895Z,12.75
2019-02-21T18:17:26.945Z,14.75
2019-02-21T18:22:30.044Z,12.75
2019-02-21T18:27:34.248Z,11.00
2019-02-21T18:32:38.386Z,13.75
2019-02-21T18:37:47.547Z,11.20
2019-02-21T18:42:48.450Z,10.60
2019-02-21T18:47:52.648Z,9.80
2019-02-21T18:52:56.680Z,10.50
2019-02-21T18:58:00.903Z,11.25
2019-02-21T19:03:05.109Z,10.75
2019-02-21T19:08:09.319Z,10.25
2019-02-21T19:13:13.545Z,11.60
2019-02-21T19:18:17.702Z,10.50
2019-02-21T19:23:21.899Z,11.00
2019-02-21T19:28:26.089Z,9.75
2019-02-21T19:33:31.027Z,7.60
2019-02-21T19:38:35.218Z,8.00
2019-02-21T19:43:39.286Z,10.00
2019-02-21T19:48:43.353Z,8.40
2019-02-21T19:53:47.591Z,8.60
2019-02-21T19:58:51.623Z,8.60
2019-02-21T20:03:55.769Z,10.40
2019-02-21T20:08:59.799Z,8.25
2019-02-21T20:14:03.912Z,8.25
2019-02-21T20:19:07.939Z,9.00
2019-02-21T20:24:12.349Z,8.00
2019-02-21T20:29:16.535Z,9.40
2019-02-21T20:34:20.593Z,9.20
2019-02-21T20:39:24.728Z,10.50
2019-02-21T20:44:28.906Z,8.75
2019-02-21T20:49:32.928Z,7.50
2019-02-21T20:54:37.055Z,9.00
2019-02-21T20:59:41.176Z,10.00
2019-02-21T21:04:45.371Z,8.80
2019-02-21T21:09:49.637Z,8.20
2019-02-21T21:14:53.780Z,10.00
2019-02-21T21:19:57.824Z,9.60
2019-02-21T21:25:01.977Z,10.50
2019-02-21T21:30:07.308Z,8.80
2019-02-21T21:35:11.513Z,9.83
2019-02-21T21:40:16.624Z,7.20
2019-02-21T21:45:20.887Z,6.80
2019-02-21T21:50:25.090Z,7.20
2019-02-21T21:55:29.277Z,8.60
2019-02-21T22:00:33.370Z,9.00
2019-02-21T22:05:37.568Z,8.00
2019-02-21T22:10:41.593Z,9.00
2019-02-21T22:15:45.663Z,9.25
2019-02-21T22:20:49.761Z,8.60
2019-02-21T22:25:53.808Z,12.75
2019-02-21T22:30:58.218Z,7.00
2019-02-21T22:36:02.713Z,8.80
2019-02-21T22:41:06.740Z,9.00
2019-02-21T22:46:10.840Z,8.25
2019-02-21T22:51:14.914Z,7.80
2019-02-21T22:56:18.956Z,9.50
2019-02-21T23:01:30.029Z,7.75
2019-02-21T23:06:45.656Z,8.00
2019-02-21T23:11:50.043Z,7.50
2019-02-21T23:16:54.206Z,9.25
2019-02-21T23:21:58.522Z,9.00
2019-02-21T23:27:02.956Z,9.00
2019-02-21T23:32:07.180Z,8.00
2019-02-21T23:37:11.534Z,11.80
2019-02-21T23:42:15.864Z,7.50
2019-02-21T23:47:20.154Z,7.50
2019-02-21T23:52:24.344Z,9.40
2019-02-21T23:57:28.628Z,9.60
